Time;durP1;ratioP1;P1;durP2;ratioP2;P2;SDS_P1;SDS_P2;PMS_P1;PMS_P2;Temp;Humidity;BMP_temperature;BMP_pressure;BME280_temperature;BME280_humidity;BME280_pressure;Samples;Min_cycle;Max_cycle;Signal;HPM_P1;HPM_P2
2023/01/29 00:01:25;;;;;;;19.15;12.48;;;5.80;99.90;;;;;;5119709;28;20047;-78
2023/01/29 00:03:51;;;;;;;22.65;13.02;;;5.90;99.90;;;;;;5119120;28;20039;-78
2023/01/29 00:06:17;;;;;;;19.70;12.32;;;5.90;99.90;;;;;;5119671;28;20324;-78
2023/01/29 00:08:43;;;;;;;20.70;13.02;;;5.90;99.90;;;;;;5119418;28;20035;-78
2023/01/29 00:11:08;;;;;;;16.88;11.35;;;5.70;99.90;;;;;;5119507;28;20046;-78
2023/01/29 00:13:35;;;;;;;20.50;13.63;;;5.70;99.90;;;;;;5119109;28;20035;-78
2023/01/29 00:16:01;;;;;;;18.33;12.27;;;5.70;99.90;;;;;;5119221;28;20039;-78
2023/01/29 00:18:28;;;;;;;20.85;12.15;;;5.70;99.90;;;;;;5119009;28;20194;-78
2023/01/29 00:20:54;;;;;;;19.20;12.77;;;5.60;99.90;;;;;;5118806;28;20481;-77
2023/01/29 00:23:20;;;;;;;20.65;13.50;;;5.70;99.90;;;;;;5119161;28;20039;-77
2023/01/29 00:25:46;;;;;;;20.45;13.82;;;5.80;99.90;;;;;;5118745;28;20432;-77
2023/01/29 00:28:12;;;;;;;21.35;13.38;;;5.90;99.90;;;;;;5119134;28;20080;-78
2023/01/29 00:30:38;;;;;;;22.65;14.77;;;5.90;99.90;;;;;;5118705;28;20377;-78
2023/01/29 00:33:05;;;;;;;20.60;13.60;;;6.00;99.90;;;;;;5118416;28;20068;-78
2023/01/29 00:35:31;;;;;;;21.95;15.32;;;5.90;99.90;;;;;;5118942;28;20324;-78
2023/01/29 00:37:57;;;;;;;25.67;15.70;;;5.80;99.90;;;;;;5118700;28;20032;-77
2023/01/29 00:40:24;;;;;;;20.73;15.65;;;5.80;99.90;;;;;;5118387;28;20040;-78
2023/01/29 00:45:37;;;;;;;23.58;15.68;;;5.90;99.90;;;;;;5118363;28;20447;-77
2023/01/29 00:48:03;;;;;;;19.80;14.05;;;6.00;99.90;;;;;;5118298;28;20138;-77
2023/01/29 00:50:30;;;;;;;21.40;15.93;;;5.90;99.90;;;;;;5118586;28;20039;-78
2023/01/29 00:52:56;;;;;;;25.38;15.48;;;6.00;99.90;;;;;;5118615;28;20036;-77
2023/01/29 00:55:22;;;;;;;27.13;15.30;;;6.10;99.90;;;;;;5118590;28;20093;-77
2023/01/29 00:57:48;;;;;;;22.70;16.23;;;6.10;99.90;;;;;;5118613;28;20043;-77
2023/01/29 01:00:16;;;;;;;24.67;16.75;;;6.20;99.90;;;;;;5118303;28;20031;-78
2023/01/29 01:05:27;;;;;;;22.60;16.73;;;6.00;99.90;;;;;;5118507;28;20054;-78
2023/01/29 01:07:55;;;;;;;26.70;17.50;;;6.00;99.90;;;;;;5117287;28;20328;-78
2023/01/29 01:10:28;;;;;;;26.95;17.50;;;6.00;99.90;;;;;;5118393;28;20119;-77
2023/01/29 01:13:03;;;;;;;26.92;18.67;;;6.10;99.90;;;;;;5118173;28;20119;-78
2023/01/29 01:15:31;;;;;;;25.38;18.73;;;6.00;99.90;;;;;;5118071;28;20089;-77
2023/01/29 01:18:01;;;;;;;32.15;20.30;;;5.90;99.90;;;;;;5118187;28;20032;-78
2023/01/29 01:20:29;;;;;;;30.98;19.20;;;6.00;99.90;;;;;;5118063;28;20063;-77
2023/01/29 01:22:54;;;;;;;27.15;18.48;;;5.90;99.90;;;;;;5118021;28;20073;-78
2023/01/29 01:25:22;;;;;;;30.60;19.67;;;5.80;99.90;;;;;;5118082;28;20366;-78
2023/01/29 01:27:50;;;;;;;27.63;18.10;;;6.00;99.90;;;;;;5117703;28;20355;-77
2023/01/29 01:30:16;;;;;;;29.25;18.88;;;6.00;99.90;;;;;;5117789;28;20036;-78
2023/01/29 01:32:42;;;;;;;25.95;18.05;;;6.10;99.90;;;;;;5117885;28;20046;-78
2023/01/29 01:35:09;;;;;;;27.90;18.80;;;6.10;99.90;;;;;;5117656;28;20115;-78
2023/01/29 01:37:38;;;;;;;34.50;18.65;;;6.00;99.90;;;;;;5118020;28;20050;-77
2023/01/29 01:40:11;;;;;;;35.53;20.23;;;5.90;99.90;;;;;;5117835;28;20042;-78
2023/01/29 01:42:39;;;;;;;29.60;19.50;;;5.90;99.90;;;;;;5117750;28;20048;-77
2023/01/29 01:45:09;;;;;;;26.88;20.08;;;5.90;99.90;;;;;;5117721;28;20048;-78
2023/01/29 01:47:45;;;;;;;31.90;20.08;;;6.00;99.90;;;;;;5118163;28;20051;-78
2023/01/29 01:50:13;;;;;;;33.33;20.02;;;5.90;99.90;;;;;;5099775;28;20039;-78
2023/01/29 01:52:48;;;;;;;30.77;20.02;;;6.00;99.90;;;;;;5118103;28;20101;-78
2023/01/29 01:55:18;;;;;;;30.63;19.48;;;6.00;99.90;;;;;;5118186;28;20043;-78
2023/01/29 01:57:50;;;;;;;28.45;19.60;;;6.00;99.90;;;;;;5118028;28;20031;-78
2023/01/29 02:00:19;;;;;;;38.35;21.42;;;6.00;99.90;;;;;;5118112;28;20040;-78
2023/01/29 02:11:08;;;;;;;33.78;21.35;;;6.00;99.90;;;;;;5117692;28;20063;-78
2023/01/29 02:13:34;;;;;;;36.15;22.52;;;6.00;99.90;;;;;;5117220;28;20039;-78
2023/01/29 02:15:59;;;;;;;38.08;24.38;;;6.10;99.90;;;;;;5121895;28;20040;-78
2023/01/29 02:18:25;;;;;;;41.08;24.10;;;6.00;99.90;;;;;;5121919;28;20040;-78
2023/01/29 02:21:05;;;;;;;38.47;25.38;;;5.90;99.90;;;;;;5122062;27;20036;-78
2023/01/29 02:23:53;;;;;;;34.42;24.83;;;5.90;99.90;;;;;;5121761;28;20139;-78
2023/01/29 02:26:39;;;;;;;35.75;24.70;;;5.90;99.90;;;;;;5121494;28;20040;-78
2023/01/29 02:29:21;;;;;;;40.72;25.88;;;6.00;99.90;;;;;;5121459;28;20036;-78
2023/01/29 02:32:13;;;;;;;41.10;27.63;;;5.80;99.90;;;;;;5121615;28;20079;-78
2023/01/29 02:38:05;;;;;;;42.92;29.65;;;5.90;99.90;;;;;;5121373;28;20085;-78
2023/01/29 02:40:55;;;;;;;38.75;28.33;;;6.00;99.90;;;;;;5121636;28;20116;-78
2023/01/29 02:43:54;;;;;;;40.92;30.52;;;5.90;99.90;;;;;;5103019;28;20093;-78
2023/01/29 02:46:43;;;;;;;43.25;30.25;;;5.90;99.90;;;;;;5120983;28;20317;-78
2023/01/29 02:49:37;;;;;;;41.13;30.05;;;6.00;99.90;;;;;;5120144;28;20047;-78
2023/01/29 02:52:14;;;;;;;44.00;31.08;;;5.80;99.90;;;;;;5120785;28;20082;-78
2023/01/29 02:55:05;;;;;;;45.60;32.20;;;5.80;99.90;;;;;;5119889;28;20381;-78
2023/01/29 02:57:36;;;;;;;45.65;32.80;;;5.90;99.90;;;;;;5121406;28;20028;-78
2023/01/29 03:00:12;;;;;;;43.95;33.03;;;5.90;99.90;;;;;;5119824;28;20321;-78
2023/01/29 03:03:02;;;;;;;45.13;33.25;;;6.10;99.90;;;;;;5121332;28;20050;-78
2023/01/29 03:05:52;;;;;;;45.90;32.83;;;6.20;99.90;;;;;;5121041;28;20054;-78
2023/01/29 03:08:35;;;;;;;46.42;33.03;;;6.40;99.90;;;;;;5091126;28;20503;-78
2023/01/29 03:11:04;;;;;;;50.28;33.22;;;6.40;99.90;;;;;;5120002;28;20051;-78
2023/01/29 03:13:50;;;;;;;50.25;33.83;;;6.40;99.90;;;;;;5120785;28;20058;-78
2023/01/29 03:16:37;;;;;;;51.72;33.97;;;6.20;99.90;;;;;;5120921;28;20047;-78
2023/01/29 03:19:11;;;;;;;;;;;6.20;99.90;;;;;;5120346;28;20051;-78
2023/01/29 03:21:52;;;;;;;53.22;34.15;;;6.00;99.90;;;;;;5120659;28;19916;-78
2023/01/29 03:32:54;;;;;;;49.40;35.00;;;5.70;99.90;;;;;;5120186;28;20093;-78
2023/01/29 03:35:32;;;;;;;49.70;35.28;;;5.70;99.90;;;;;;5118906;28;20066;-78
2023/01/29 03:37:59;;;;;;;47.75;36.15;;;5.60;99.90;;;;;;5120515;28;20051;-78
2023/01/29 03:40:28;;;;;;;47.55;33.80;;;5.60;99.90;;;;;;5120283;28;20040;-78
2023/01/29 03:43:17;;;;;;;49.67;35.50;;;5.50;99.90;;;;;;5120075;28;20051;-78
2023/01/29 03:46:04;;;;;;;53.88;35.58;;;5.60;99.90;;;;;;5118832;28;20058;-78
2023/01/29 03:48:38;;;;;;;51.03;35.40;;;5.60;99.90;;;;;;5120180;28;20044;-78
2023/01/29 03:51:31;;;;;;;53.03;35.35;;;5.50;99.90;;;;;;5120128;28;20344;-78
2023/01/29 03:54:17;;;;;;;54.50;34.85;;;5.60;99.90;;;;;;5119987;28;20055;-78
2023/01/29 03:57:16;;;;;;;54.33;36.10;;;5.50;99.90;;;;;;5119993;28;20367;-78
2023/01/29 03:59:48;;;;;;;51.35;33.65;;;5.60;99.90;;;;;;5102829;28;20367;-78
2023/01/29 04:02:26;;;;;;;54.65;34.22;;;5.60;99.90;;;;;;5119655;28;20490;-78
2023/01/29 04:04:56;;;;;;;51.70;33.88;;;5.60;99.90;;;;;;5118793;28;20040;-78
2023/01/29 04:07:26;;;;;;;52.92;34.72;;;5.50;99.90;;;;;;5119703;28;20043;-78
2023/01/29 04:10:02;;;;;;;52.40;33.95;;;5.50;99.90;;;;;;5119513;28;20063;-78
2023/01/29 04:12:37;;;;;;;50.38;33.10;;;5.50;99.90;;;;;;5118704;28;20074;-78
2023/01/29 04:15:06;;;;;;;51.03;33.33;;;5.60;99.90;;;;;;5117976;28;20044;-78
2023/01/29 04:17:39;;;;;;;52.83;33.55;;;5.60;99.90;;;;;;5118713;28;20043;-78
2023/01/29 04:20:05;;;;;;;51.35;33.17;;;5.60;99.90;;;;;;5119410;28;20091;-78
2023/01/29 04:22:37;;;;;;;49.22;33.13;;;5.60;99.90;;;;;;5119119;28;20061;-78
2023/01/29 04:25:14;;;;;;;46.88;32.00;;;5.60;99.90;;;;;;5118185;28;20043;-78
2023/01/29 04:27:58;;;;;;;46.47;31.70;;;5.70;99.90;;;;;;5118929;28;20042;-78
2023/01/29 04:31:02;;;;;;;44.25;29.95;;;5.60;99.90;;;;;;5119270;28;20036;-78
2023/01/29 04:33:30;;;;;;;47.20;30.58;;;5.50;99.90;;;;;;5104487;28;20493;-78
2023/01/29 04:36:21;;;;;;;50.22;31.20;;;5.60;99.90;;;;;;5119071;28;20036;-78
2023/01/29 04:38:56;;;;;;;47.60;31.88;;;5.70;99.90;;;;;;5119162;28;20031;-78
2023/01/29 04:41:32;;;;;;;47.00;32.10;;;5.80;99.90;;;;;;5118972;28;20035;-78
2023/01/29 04:44:14;;;;;;;48.60;33.28;;;5.70;99.90;;;;;;5118578;28;20063;-78
2023/01/29 04:46:58;;;;;;;52.05;33.60;;;5.80;99.90;;;;;;5118503;28;20039;-78
2023/01/29 04:49:54;;;;;;;52.53;34.03;;;5.80;99.90;;;;;;5118835;28;20401;-78
2023/01/29 04:52:30;;;;;;;50.00;34.90;;;5.90;99.90;;;;;;5098542;27;20344;-78
2023/01/29 04:54:59;;;;;;;49.35;34.53;;;5.80;99.90;;;;;;5118588;28;20417;-78
2023/01/29 04:57:31;;;;;;;47.00;32.22;;;5.90;99.90;;;;;;5118708;28;20051;-78
2023/01/29 05:00:03;;;;;;;54.40;35.05;;;5.80;99.90;;;;;;5118637;28;20043;-78
2023/01/29 05:02:30;;;;;;;51.60;35.47;;;5.70;99.90;;;;;;5118426;28;20043;-78
2023/01/29 05:04:57;;;;;;;55.70;35.60;;;5.70;99.90;;;;;;5117932;27;20367;-78
2023/01/29 05:07:25;;;;;;;52.80;35.88;;;5.70;99.90;;;;;;5118329;28;20039;-78
2023/01/29 05:09:51;;;;;;;52.60;36.25;;;5.70;99.90;;;;;;5117932;28;20318;-78
2023/01/29 05:12:18;;;;;;;60.13;38.22;;;5.80;99.90;;;;;;5118194;28;20046;-78
2023/01/29 05:14:45;;;;;;;56.50;39.45;;;5.80;99.90;;;;;;5118493;28;20039;-78
2023/01/29 05:17:19;;;;;;;59.55;40.13;;;5.80;99.90;;;;;;5118458;28;20046;-78
2023/01/29 05:19:45;;;;;;;58.58;38.85;;;5.80;99.90;;;;;;5113276;28;20428;-78
2023/01/29 05:22:14;;;;;;;59.25;39.80;;;5.70;99.90;;;;;;5106827;28;20040;-78
2023/01/29 05:24:40;;;;;;;61.45;42.75;;;5.70;99.90;;;;;;5116955;28;20098;-78
2023/01/29 05:29:56;;;;;;;63.70;41.83;;;5.60;99.90;;;;;;5097662;28;20536;-78
2023/01/29 05:32:22;;;;;;;67.68;44.08;;;5.60;99.90;;;;;;5096704;28;20076;-78
2023/01/29 05:34:48;;;;;;;69.05;43.30;;;5.70;99.90;;;;;;5095931;28;20083;-78
2023/01/29 05:37:14;;;;;;;73.35;45.50;;;5.60;99.90;;;;;;5097680;28;20040;-78
2023/01/29 05:39:39;;;;;;;72.07;44.88;;;5.70;99.90;;;;;;5097615;28;20325;-78
2023/01/29 05:42:05;;;;;;;66.95;43.85;;;5.60;99.90;;;;;;5097394;28;20040;-77
2023/01/29 05:44:31;;;;;;;66.90;44.60;;;5.40;99.90;;;;;;5097796;28;20106;-78
2023/01/29 05:46:57;;;;;;;69.38;45.15;;;5.30;99.90;;;;;;5079357;28;20076;-78
2023/01/29 05:49:22;;;;;;;80.03;46.13;;;5.40;99.90;;;;;;5097022;28;20092;-78
2023/01/29 05:51:48;;;;;;;71.25;45.35;;;5.30;99.90;;;;;;5097636;28;20044;-78
2023/01/29 05:54:14;;;;;;;76.35;47.00;;;5.40;99.90;;;;;;5096408;28;20044;-78
2023/01/29 05:56:39;;;;;;;72.57;45.15;;;5.20;99.90;;;;;;5096340;28;20036;-78
2023/01/29 05:59:06;;;;;;;73.05;45.13;;;5.20;99.90;;;;;;5096577;28;20032;-78
2023/01/29 06:01:32;;;;;;;71.25;46.35;;;5.30;99.90;;;;;;5096436;28;20047;-78
2023/01/29 06:03:57;;;;;;;70.43;46.67;;;5.30;99.90;;;;;;5096819;28;20362;-78
2023/01/29 06:06:23;;;;;;;75.03;46.63;;;5.40;99.90;;;;;;5096183;28;20093;-78
2023/01/29 06:08:49;;;;;;;68.53;45.38;;;5.50;99.90;;;;;;5097121;28;20123;-78
2023/01/29 06:11:17;;;;;;;69.90;44.22;;;5.60;99.90;;;;;;5097161;28;20101;-78
2023/01/29 06:13:43;;;;;;;72.20;45.05;;;5.60;99.90;;;;;;5096943;28;20044;-78
2023/01/29 06:16:10;;;;;;;71.93;44.92;;;5.60;99.90;;;;;;5096942;28;20042;-77
2023/01/29 06:18:38;;;;;;;72.85;43.75;;;5.50;99.90;;;;;;5097324;28;20040;-78
2023/01/29 06:21:05;;;;;;;70.32;41.97;;;5.40;99.90;;;;;;5097105;28;20060;-78
2023/01/29 06:23:31;;;;;;;76.32;43.92;;;5.30;99.90;;;;;;5097202;28;20079;-78
2023/01/29 06:26:11;;;;;;;73.32;40.92;;;5.40;99.90;;;;;;5097272;28;20047;-78
2023/01/29 06:28:38;;;;;;;74.47;41.47;;;5.40;99.90;;;;;;5096843;28;20119;-78
2023/01/29 06:31:05;;;;;;;77.65;43.15;;;5.50;99.90;;;;;;5097140;28;20055;-78
2023/01/29 06:33:31;;;;;;;81.70;44.60;;;5.50;99.90;;;;;;5095534;28;20050;-78
2023/01/29 06:36:03;;;;;;;79.43;46.28;;;5.50;99.90;;;;;;5097095;28;20036;-78
2023/01/29 06:38:29;;;;;;;87.57;46.25;;;5.60;99.90;;;;;;5096949;28;20118;-78
2023/01/29 06:40:56;;;;;;;84.35;47.45;;;5.60;99.90;;;;;;5096821;28;20079;-78
2023/01/29 06:43:22;;;;;;;80.25;45.58;;;5.60;99.90;;;;;;5096962;28;20067;-78
2023/01/29 06:45:51;;;;;;;78.82;46.13;;;5.50;99.90;;;;;;5097255;28;20314;-78
2023/01/29 06:48:17;;;;;;;75.80;47.53;;;5.60;99.90;;;;;;5097094;28;20040;-78
2023/01/29 06:50:43;;;;;;;76.97;45.35;;;5.60;99.90;;;;;;5096931;28;20086;-78
2023/01/29 06:53:09;;;;;;;73.32;43.75;;;5.50;99.90;;;;;;5096764;28;20032;-78
2023/01/29 06:55:35;;;;;;;76.97;45.20;;;5.40;99.90;;;;;;5097058;28;20039;-78
2023/01/29 06:58:08;;;;;;;72.90;43.42;;;5.40;99.90;;;;;;5096903;28;20090;-78
2023/01/29 07:00:34;;;;;;;79.47;44.80;;;5.40;99.90;;;;;;5097263;28;20040;-78
2023/01/29 07:03:00;;;;;;;78.72;44.63;;;5.40;99.90;;;;;;5100272;28;20097;-78
2023/01/29 07:05:25;;;;;;;73.28;44.60;;;5.30;99.90;;;;;;5100053;28;20048;-78
2023/01/29 07:07:51;;;;;;;82.70;46.58;;;5.30;99.90;;;;;;5100426;28;20032;-78
2023/01/29 07:10:17;;;;;;;75.55;47.15;;;5.30;99.90;;;;;;5100414;28;20040;-78
2023/01/29 07:12:43;;;;;;;79.13;46.30;;;5.40;99.90;;;;;;5100042;28;20098;-78
2023/01/29 07:15:11;;;;;;;74.30;45.70;;;5.40;99.90;;;;;;5099274;28;20069;-78
2023/01/29 07:17:37;;;;;;;79.60;46.35;;;5.40;99.90;;;;;;5100480;28;20036;-78
2023/01/29 07:20:04;;;;;;;77.70;45.65;;;5.40;99.90;;;;;;5100304;28;20044;-78
2023/01/29 07:22:30;;;;;;;79.28;45.25;;;5.50;99.90;;;;;;5099190;28;20044;-78
2023/01/29 07:24:56;;;;;;;78.68;46.70;;;5.40;99.90;;;;;;5100538;28;20043;-78
2023/01/29 07:27:22;;;;;;;78.20;44.60;;;5.50;99.90;;;;;;5100252;28;20330;-78
2023/01/29 07:29:48;;;;;;;72.80;46.15;;;5.50;99.90;;;;;;5100633;28;20396;-78
2023/01/29 07:32:14;;;;;;;76.30;46.58;;;5.50;99.90;;;;;;5099991;28;20040;-78
2023/01/29 07:34:39;;;;;;;74.50;44.17;;;5.60;99.90;;;;;;5099119;28;20131;-79
2023/01/29 07:37:05;;;;;;;73.35;43.72;;;5.50;99.90;;;;;;5099947;28;20066;-78
2023/01/29 07:39:31;;;;;;;76.30;46.15;;;5.50;99.90;;;;;;5099088;28;20431;-78
2023/01/29 07:41:57;;;;;;;80.57;45.63;;;5.50;99.90;;;;;;5098940;28;20044;-79
2023/01/29 07:44:22;;;;;;;78.63;45.63;;;5.50;99.90;;;;;;5099800;28;20105;-78
2023/01/29 07:46:48;;;;;;;81.43;47.22;;;5.50;99.90;;;;;;5100081;28;20055;-79
2023/01/29 07:49:14;;;;;;;79.18;47.40;;;5.50;99.90;;;;;;5099965;28;20063;-78
2023/01/29 07:51:40;;;;;;;79.47;46.55;;;5.50;99.90;;;;;;5098671;28;20035;-79
2023/01/29 07:54:06;;;;;;;86.00;49.13;;;5.50;99.90;;;;;;5098380;28;20051;-78
2023/01/29 07:56:31;;;;;;;81.95;46.80;;;5.50;99.90;;;;;;5099661;28;20310;-78
2023/01/29 07:58:57;;;;;;;78.38;46.83;;;5.40;99.90;;;;;;5098450;28;20036;-78
2023/01/29 08:01:23;;;;;;;85.07;48.13;;;5.40;99.90;;;;;;5099146;28;20036;-78
2023/01/29 08:03:49;;;;;;;79.68;46.40;;;5.40;99.90;;;;;;5098897;28;20032;-79
2023/01/29 08:06:14;;;;;;;72.50;45.40;;;5.30;99.90;;;;;;5099490;28;20097;-79
2023/01/29 08:08:40;;;;;;;75.38;46.42;;;5.30;99.90;;;;;;5099224;28;20396;-78
2023/01/29 08:11:06;;;;;;;70.32;41.97;;;5.20;99.90;;;;;;5098884;28;20418;-78
2023/01/29 08:13:32;;;;;;;71.05;42.75;;;5.30;99.90;;;;;;5097680;28;20052;-78
2023/01/29 08:16:02;;;;;;;79.18;43.10;;;5.40;99.90;;;;;;5099146;28;20078;-78
2023/01/29 08:18:28;;;;;;;67.22;41.55;;;5.50;99.90;;;;;;5099042;28;20421;-79
2023/01/29 08:20:59;;;;;;;80.75;45.95;;;5.50;99.90;;;;;;5099046;28;20302;-78
2023/01/29 08:23:25;;;;;;;69.10;42.85;;;5.50;99.90;;;;;;5097731;28;20422;-79
2023/01/29 08:25:50;;;;;;;77.88;47.75;;;5.40;99.90;;;;;;5098972;28;20065;-78
2023/01/29 08:28:16;;;;;;;72.18;45.42;;;5.50;99.90;;;;;;5097709;28;20036;-78
2023/01/29 08:30:42;;;;;;;75.68;47.97;;;5.50;99.90;;;;;;5098906;28;20036;-79
2023/01/29 08:33:09;;;;;;;85.60;50.20;;;5.50;99.90;;;;;;5098693;28;20044;-78
2023/01/29 08:35:35;;;;;;;81.35;47.30;;;5.50;99.90;;;;;;5098471;28;20364;-79
2023/01/29 08:38:03;;;;;;;75.35;47.72;;;5.50;99.90;;;;;;5098546;28;20043;-78
2023/01/29 08:40:31;;;;;;;75.45;45.38;;;5.50;99.90;;;;;;5098533;28;20036;-79
2023/01/29 08:43:02;;;;;;;69.78;43.90;;;5.50;99.90;;;;;;5098289;28;20060;-78
2023/01/29 08:45:28;;;;;;;74.07;45.13;;;5.50;99.90;;;;;;5098691;28;20105;-79
2023/01/29 08:47:54;;;;;;;74.55;46.47;;;5.60;99.90;;;;;;5098327;28;20050;-79
2023/01/29 08:50:20;;;;;;;80.90;47.90;;;5.60;99.90;;;;;;5098430;28;20035;-79
2023/01/29 08:52:46;;;;;;;81.35;49.47;;;5.60;99.90;;;;;;5098399;28;20040;-79
2023/01/29 08:55:12;;;;;;;86.82;50.90;;;5.60;99.90;;;;;;5098337;28;20063;-79
2023/01/29 08:57:38;;;;;;;85.97;51.53;;;5.70;99.90;;;;;;5098622;28;20328;-79
2023/01/29 09:00:05;;;;;;;91.13;53.67;;;5.80;99.90;;;;;;5098527;28;20040;-79
2023/01/29 09:02:31;;;;;;;82.28;51.58;;;5.80;99.90;;;;;;5096813;28;20071;-79
2023/01/29 09:04:57;;;;;;;85.57;50.92;;;5.80;99.90;;;;;;5097987;28;20121;-79
2023/01/29 09:07:23;;;;;;;88.55;53.58;;;5.90;99.90;;;;;;5097888;28;20468;-79
2023/01/29 09:09:48;;;;;;;94.32;52.67;;;5.90;99.90;;;;;;5098034;28;20040;-78
2023/01/29 09:12:14;;;;;;;85.03;52.30;;;5.80;99.90;;;;;;5098059;28;20318;-79
2023/01/29 09:14:40;;;;;;;91.70;53.83;;;5.90;99.90;;;;;;5097395;28;20123;-79
2023/01/29 09:17:05;;;;;;;88.00;49.22;;;5.90;99.90;;;;;;5097250;28;20043;-79
2023/01/29 09:19:31;;;;;;;80.07;50.70;;;5.90;99.90;;;;;;5097694;28;20046;-79
2023/01/29 09:21:57;;;;;;;82.93;48.78;;;6.00;99.90;;;;;;5096283;28;20040;-79
2023/01/29 09:24:22;;;;;;;83.00;48.80;;;6.00;99.90;;;;;;5096806;28;20040;-79
2023/01/29 09:26:48;;;;;;;82.55;48.08;;;5.90;99.90;;;;;;5097851;28;20039;-79
2023/01/29 09:29:14;;;;;;;82.28;50.90;;;5.90;99.90;;;;;;5097198;28;20051;-78
2023/01/29 09:31:39;;;;;;;83.10;47.40;;;5.90;99.90;;;;;;5096928;28;20031;-74
2023/01/29 09:34:05;;;;;;;77.22;48.10;;;5.80;99.90;;;;;;5095396;28;20036;-72
2023/01/29 09:36:31;;;;;;;74.35;45.05;;;5.90;99.90;;;;;;5097093;28;20032;-72
2023/01/29 09:38:56;;;;;;;74.32;44.42;;;5.90;99.90;;;;;;5097038;28;20043;-71
2023/01/29 09:41:55;;;;;;;71.90;42.50;;;6.10;99.90;;;;;;5096755;28;20033;-72
2023/01/29 09:45:09;;;;;;;80.28;45.03;;;6.20;99.90;;;;;;5096595;28;20067;-72
2023/01/29 09:47:35;;;;;;;74.90;44.42;;;6.10;99.90;;;;;;5082335;28;20047;-72
2023/01/29 09:50:12;;;;;;;71.07;43.85;;;6.20;99.90;;;;;;5096897;28;20100;-72
2023/01/29 09:53:12;;;;;;;79.13;44.42;;;6.10;99.90;;;;;;5096855;28;20040;-72
2023/01/29 09:55:48;;;;;;;73.97;43.22;;;6.20;99.90;;;;;;5094472;28;20044;-73
2023/01/29 09:58:33;;;;;;;;;;;6.10;99.90;;;;;;5097147;28;20070;-71
2023/01/29 10:01:25;;;;;;;75.65;42.92;;;6.00;99.90;;;;;;5096777;28;20262;-72
2023/01/29 10:04:25;;;;;;;77.10;41.67;;;6.10;99.90;;;;;;5093906;28;20048;-72
2023/01/29 10:07:30;;;;;;;73.15;41.83;;;6.00;99.90;;;;;;5096810;28;20329;-72
2023/01/29 10:10:12;;;;;;;80.20;42.95;;;6.10;99.90;;;;;;5094253;28;20052;-71
2023/01/29 10:12:49;;;;;;;78.65;44.95;;;6.10;99.90;;;;;;5096397;28;20036;-72
2023/01/29 10:15:34;;;;;;;82.25;45.78;;;6.10;99.90;;;;;;5096320;28;20075;-71
2023/01/29 10:18:14;;;;;;;78.18;43.55;;;6.00;99.90;;;;;;5095370;28;20040;-72
2023/01/29 10:20:45;;;;;;;85.75;47.42;;;5.90;99.90;;;;;;5096631;28;20036;-72
2023/01/29 10:23:37;;;;;;;88.38;50.33;;;5.90;99.90;;;;;;5096689;28;20044;-71
2023/01/29 10:26:03;;;;;;;93.25;52.00;;;6.00;99.90;;;;;;5096316;28;20040;-72
2023/01/29 10:28:41;;;;;;;101.78;57.17;;;5.90;99.90;;;;;;5105379;28;20055;-72
2023/01/29 10:31:12;;;;;;;107.82;59.97;;;5.90;99.90;;;;;;5096065;28;20338;-73
2023/01/29 10:33:40;;;;;;;105.85;57.55;;;5.90;99.90;;;;;;5095258;28;20093;-72
2023/01/29 10:36:15;;;;;;;108.13;59.85;;;5.80;99.90;;;;;;5099304;28;20032;-72
2023/01/29 10:38:51;;;;;;;105.07;57.60;;;5.90;99.90;;;;;;5100146;28;20044;-72
2023/01/29 10:41:20;;;;;;;116.63;61.83;;;5.80;99.90;;;;;;5099000;28;20122;-72
2023/01/29 10:44:17;;;;;;;119.00;61.30;;;5.90;99.90;;;;;;5098665;28;20084;-71
2023/01/29 10:46:56;;;;;;;126.82;64.38;;;5.90;99.90;;;;;;5115924;28;20040;-72
2023/01/29 10:49:57;;;;;;;111.90;61.17;;;6.00;99.90;;;;;;5100047;28;20483;-72
2023/01/29 10:52:54;;;;;;;117.22;60.58;;;6.00;99.90;;;;;;5095914;28;20510;-75
2023/01/29 10:55:35;;;;;;;121.32;62.85;;;6.20;99.90;;;;;;5100062;28;20040;-72
2023/01/29 10:58:27;;;;;;;123.68;65.53;;;6.10;99.90;;;;;;5099937;28;20036;-72
2023/01/29 11:00:53;;;;;;;125.75;64.00;;;6.00;99.90;;;;;;5099906;28;20028;-76
2023/01/29 11:03:25;;;;;;;116.32;61.97;;;6.00;99.90;;;;;;5099869;28;20455;-75
2023/01/29 11:06:22;;;;;;;128.25;65.45;;;5.80;99.90;;;;;;5098059;28;20044;-71
2023/01/29 11:08:54;;;;;;;;;;;5.90;99.90;;;;;;5099143;28;20056;-71
2023/01/29 11:11:23;;;;;;;120.43;62.25;;;5.80;99.90;;;;;;5099671;28;19916;-71
2023/01/29 11:13:57;;;;;;;119.47;60.80;;;6.00;99.90;;;;;;5099549;28;20371;-71
2023/01/29 11:16:23;;;;;;;117.63;62.75;;;6.00;99.90;;;;;;5098263;28;20102;-72
2023/01/29 11:18:53;;;;;;;108.15;58.40;;;5.90;99.90;;;;;;5099544;28;20036;-71
2023/01/29 11:21:20;;;;;;;125.55;65.20;;;6.00;99.90;;;;;;5099110;28;20122;-71
2023/01/29 11:23:46;;;;;;;116.47;63.75;;;6.00;99.90;;;;;;5099986;28;20071;-71
2023/01/29 11:26:17;;;;;;;113.80;63.28;;;6.10;99.90;;;;;;5098121;28;20032;-72
2023/01/29 11:28:45;;;;;;;96.10;57.65;;;6.20;99.90;;;;;;5098041;28;20436;-72
2023/01/29 11:31:34;;;;;;;125.25;64.63;;;6.20;99.90;;;;;;5097854;28;20077;-71
2023/01/29 11:34:18;;;;;;;117.25;62.08;;;6.20;99.90;;;;;;5097420;28;20040;-71
2023/01/29 11:36:44;;;;;;;113.20;64.35;;;6.30;99.90;;;;;;5098879;28;20068;-71
2023/01/29 11:39:22;;;;;;;103.78;58.75;;;6.20;99.90;;;;;;5099113;28;20117;-71
2023/01/29 11:41:58;;;;;;;105.13;58.20;;;6.10;99.90;;;;;;5097683;28;20107;-71
2023/01/29 11:44:39;;;;;;;116.03;63.17;;;6.20;99.90;;;;;;5097678;28;20056;-71
2023/01/29 11:47:08;;;;;;;121.45;66.47;;;6.10;99.90;;;;;;5098160;28;20176;-72
2023/01/29 11:49:35;;;;;;;109.18;60.10;;;6.10;99.90;;;;;;5097543;28;20048;-72
2023/01/29 11:52:04;;;;;;;114.75;62.70;;;6.00;99.90;;;;;;5097791;28;20329;-71
2023/01/29 11:54:52;;;;;;;118.40;63.35;;;5.90;99.90;;;;;;5098447;28;20443;-71
2023/01/29 11:57:21;;;;;;;109.68;61.22;;;6.00;99.90;;;;;;5098795;28;20101;-71
2023/01/29 11:59:50;;;;;;;112.97;60.20;;;6.00;99.90;;;;;;5098387;28;20039;-72
2023/01/29 12:02:44;;;;;;;123.07;62.28;;;6.10;99.90;;;;;;5098307;28;20440;-71
2023/01/29 12:05:17;;;;;;;103.40;58.92;;;6.10;99.90;;;;;;5097133;28;20098;-71
2023/01/29 12:07:47;;;;;;;122.55;65.22;;;6.20;99.90;;;;;;5098507;28;20044;-73
2023/01/29 12:10:32;;;;;;;118.65;64.90;;;6.30;99.90;;;;;;5098597;28;20319;-71
2023/01/29 12:13:24;;;;;;;120.03;66.53;;;6.20;99.90;;;;;;5098318;28;20048;-71
2023/01/29 12:16:09;;;;;;;127.78;63.78;;;6.20;99.90;;;;;;5098429;28;20036;-68
2023/01/29 12:18:39;;;;;;;130.55;68.07;;;6.20;99.90;;;;;;5097317;28;20512;-69
2023/01/29 12:21:30;;;;;;;122.20;66.18;;;6.20;99.90;;;;;;5096968;28;20337;-69
2023/01/29 12:24:05;;;;;;;117.68;65.40;;;6.20;99.90;;;;;;5098155;28;20044;-69
2023/01/29 12:26:50;;;;;;;126.55;66.78;;;6.20;99.90;;;;;;5098328;28;20044;-69
2023/01/29 12:29:37;;;;;;;117.65;64.57;;;6.30;99.90;;;;;;5098203;28;20330;-68
2023/01/29 12:32:19;;;;;;;115.47;64.60;;;6.20;99.90;;;;;;5098206;28;20036;-68
2023/01/29 12:34:47;;;;;;;123.80;66.30;;;6.30;99.90;;;;;;5097590;28;20040;-69
2023/01/29 12:37:36;;;;;;;113.18;62.72;;;6.30;99.90;;;;;;5097987;28;20040;-70
2023/01/29 12:40:11;;;;;;;109.40;61.25;;;6.30;99.90;;;;;;5096690;28;20470;-70
2023/01/29 12:42:40;;;;;;;117.70;65.25;;;6.30;99.90;;;;;;5097720;28;20113;-70
2023/01/29 12:45:09;;;;;;;95.10;61.20;;;6.30;99.90;;;;;;5097915;28;20040;-71
2023/01/29 12:47:41;;;;;;;95.50;59.60;;;6.40;99.90;;;;;;5097898;28;20101;-69
2023/01/29 12:50:19;;;;;;;129.27;67.32;;;6.50;99.90;;;;;;5097729;28;20039;-69
2023/01/29 12:52:52;;;;;;;107.75;63.25;;;6.60;99.90;;;;;;5097367;28;20306;-69
2023/01/29 12:55:26;;;;;;;113.07;63.85;;;6.50;99.90;;;;;;5097712;28;20066;-75
2023/01/29 12:58:01;;;;;;;114.00;64.10;;;6.50;99.90;;;;;;5096551;28;20080;-72
2023/01/29 13:00:35;;;;;;;124.40;66.00;;;6.50;99.90;;;;;;5097653;28;20036;-72
2023/01/29 13:03:15;;;;;;;100.95;62.45;;;6.50;99.90;;;;;;5097327;28;20040;-72
2023/01/29 13:05:56;;;;;;;100.75;61.15;;;6.40;99.90;;;;;;5095846;28;20039;-72
2023/01/29 13:08:43;;;;;;;101.57;60.10;;;6.40;99.90;;;;;;5096137;28;20115;-72
2023/01/29 13:11:32;;;;;;;116.05;63.45;;;6.50;99.90;;;;;;5096070;28;20047;-72
2023/01/29 13:14:04;;;;;;;107.68;62.88;;;6.50;99.90;;;;;;5096994;28;20059;-72
2023/01/29 13:16:39;;;;;;;104.75;61.38;;;6.30;99.90;;;;;;5097328;28;20040;-72
2023/01/29 13:19:26;;;;;;;111.15;61.65;;;6.40;99.90;;;;;;5113309;28;20079;-71
2023/01/29 13:21:54;;;;;;;106.63;62.28;;;6.40;99.90;;;;;;5079286;28;20118;-74
2023/01/29 13:24:23;;;;;;;107.03;60.47;;;6.40;99.90;;;;;;5097183;28;20044;-72
2023/01/29 13:26:49;;;;;;;109.35;62.92;;;6.20;99.90;;;;;;5094873;28;20067;-73
2023/01/29 13:29:29;;;;;;;100.18;61.15;;;6.30;99.90;;;;;;5071294;28;20047;-74
2023/01/29 13:31:58;;;;;;;103.57;60.55;;;6.30;99.90;;;;;;5116981;28;20096;-72